createdAt,value
2018-11-23T00:00:35.190Z,81.07
2018-11-23T00:03:23.788Z,81.58
2018-11-23T00:05:52.819Z,80.98
2018-11-23T00:08:41.271Z,80.89
2018-11-23T00:11:29.809Z,81.29
2018-11-23T00:14:18.258Z,81.90
2018-11-23T00:17:06.590Z,81.63
2018-11-23T00:19:54.950Z,81.81
2018-11-23T00:22:43.527Z,81.50
2018-11-23T00:25:31.902Z,81.92
2018-11-23T00:28:20.273Z,82.27
2018-11-23T00:31:08.662Z,82.41
2018-11-23T00:33:57.009Z,81.49
2018-11-23T00:36:45.439Z,81.71
2018-11-23T00:39:33.773Z,82.50
2018-11-23T00:45:48.143Z,81.48
2018-11-23T00:48:29.298Z,81.40
2018-11-23T00:51:10.693Z,82.01
2018-11-23T00:53:52.290Z,81.63
2018-11-23T00:56:33.687Z,81.85
2018-11-23T00:59:15.420Z,82.47
2018-11-23T01:02:03.465Z,82.63
2018-11-23T01:04:51.880Z,82.38
2018-11-23T01:07:21.099Z,82.65
2018-11-23T01:10:10.744Z,82.42
2018-11-23T01:12:59.318Z,82.08
2018-11-23T01:15:47.700Z,81.34
2018-11-23T01:18:36.055Z,82.02
2018-11-23T01:21:24.455Z,82.21
2018-11-23T01:24:12.781Z,82.35
2018-11-23T01:27:01.193Z,82.03
2018-11-23T01:29:49.519Z,81.93
2018-11-23T01:32:37.883Z,82.67
2018-11-23T01:35:26.383Z,82.55
2018-11-23T01:38:14.802Z,82.40
2018-11-23T01:41:03.221Z,81.75
2018-11-23T01:43:51.637Z,82.72
2018-11-23T01:46:40.101Z,81.96
2018-11-23T01:49:28.441Z,82.37
2018-11-23T01:52:16.794Z,82.16
2018-11-23T01:55:05.890Z,82.50
2018-11-23T01:57:54.249Z,81.97
2018-11-23T02:00:42.667Z,81.70
2018-11-23T02:03:31.113Z,81.98
2018-11-23T02:06:00.147Z,82.21
2018-11-23T02:08:48.604Z,82.12
2018-11-23T02:11:38.019Z,82.87
2018-11-23T02:14:25.326Z,83.24
2018-11-23T02:17:13.665Z,82.80
2018-11-23T02:20:01.997Z,82.50
2018-11-23T02:22:50.354Z,82.77
2018-11-23T02:25:38.725Z,82.38
2018-11-23T02:28:27.081Z,82.20
2018-11-23T02:31:15.363Z,82.24
2018-11-23T02:34:03.780Z,82.33
2018-11-23T02:36:52.073Z,82.72
2018-11-23T02:39:40.787Z,82.66
2018-11-23T02:42:29.126Z,82.93
2018-11-23T02:45:36.574Z,82.93
2018-11-23T02:48:24.933Z,82.54
2018-11-23T02:51:13.348Z,83.15
2018-11-23T02:54:01.699Z,82.96
2018-11-23T02:56:50.142Z,82.93
2018-11-23T02:59:38.669Z,83.40
2018-11-23T03:02:27.112Z,83.23
2018-11-23T03:05:16.742Z,83.14
2018-11-23T03:08:05.411Z,82.61
2018-11-23T03:10:53.665Z,82.73
2018-11-23T03:13:22.698Z,82.54
2018-11-23T03:15:51.660Z,83.20
2018-11-23T03:18:40.064Z,82.18
2018-11-23T03:21:28.375Z,82.08
2018-11-23T03:24:16.870Z,82.37
2018-11-23T03:27:05.252Z,83.08
2018-11-23T03:29:53.821Z,82.91
2018-11-23T03:32:42.268Z,83.30
2018-11-23T03:35:30.613Z,83.35
2018-11-23T03:38:18.937Z,83.89
2018-11-23T03:41:07.260Z,84.07
2018-11-23T03:43:48.763Z,83.29
2018-11-23T03:46:30.536Z,83.47
2018-11-23T03:49:11.785Z,83.27
2018-11-23T03:51:53.361Z,83.11
2018-11-23T03:54:22.400Z,82.75
2018-11-23T03:57:10.800Z,83.51
2018-11-23T03:59:59.144Z,83.20
2018-11-23T04:02:47.659Z,83.16
2018-11-23T04:05:35.989Z,82.80
2018-11-23T04:08:24.366Z,83.66
2018-11-23T04:11:12.735Z,83.95
2018-11-23T04:14:01.077Z,83.14
2018-11-23T04:16:30.023Z,83.57
2018-11-23T04:19:18.366Z,83.53
2018-11-23T04:21:47.460Z,84.04
2018-11-23T04:24:36.037Z,83.37
2018-11-23T04:27:24.370Z,83.39
2018-11-23T04:33:28.044Z,83.72
2018-11-23T04:36:16.365Z,83.08
2018-11-23T04:39:06.110Z,83.04
2018-11-23T04:41:54.448Z,82.94
2018-11-23T04:44:42.757Z,83.89
2018-11-23T04:47:11.838Z,83.44
2018-11-23T04:49:40.827Z,82.76
2018-11-23T04:52:09.793Z,83.39
2018-11-23T04:54:58.211Z,83.59
2018-11-23T04:57:27.197Z,83.85
2018-11-23T05:00:15.645Z,83.54
2018-11-23T05:02:45.312Z,84.06
2018-11-23T05:05:33.671Z,83.78
2018-11-23T05:11:10.857Z,83.27
2018-11-23T05:13:59.313Z,83.88
2018-11-23T05:16:47.647Z,83.51
2018-11-23T05:19:35.960Z,83.51
2018-11-23T05:22:24.332Z,84.16
2018-11-23T05:25:13.381Z,83.95
2018-11-23T05:28:01.764Z,83.61
2018-11-23T05:30:50.052Z,82.72
2018-11-23T05:33:38.343Z,82.96
2018-11-23T05:36:26.672Z,83.20
2018-11-23T05:39:15.097Z,83.66
2018-11-23T05:41:44.347Z,83.78
2018-11-23T05:44:32.698Z,83.70
2018-11-23T05:47:21.174Z,84.36
2018-11-23T05:50:11.103Z,84.64
2018-11-23T05:52:59.467Z,84.45
2018-11-23T05:55:47.808Z,84.22
2018-11-23T05:58:36.157Z,84.58
2018-11-23T06:01:24.526Z,84.42
2018-11-23T06:04:12.921Z,82.38
2018-11-23T06:07:01.314Z,82.52
2018-11-23T06:09:49.901Z,83.99
2018-11-23T06:12:38.283Z,84.37
2018-11-23T06:15:26.592Z,84.17
2018-11-23T06:18:15.048Z,83.78
2018-11-23T06:21:03.301Z,84.42
2018-11-23T06:23:51.694Z,84.85
2018-11-23T06:26:40.011Z,84.63
2018-11-23T06:29:28.430Z,84.27
2018-11-23T06:32:36.068Z,84.12
2018-11-23T06:35:24.492Z,79.76
2018-11-23T06:38:12.774Z,83.48
2018-11-23T06:41:01.143Z,83.24
2018-11-23T06:43:42.742Z,83.98
2018-11-23T06:46:24.416Z,84.39
2018-11-23T06:49:05.510Z,84.33
2018-11-23T06:51:47.111Z,84.30
2018-11-23T06:54:28.822Z,84.32
2018-11-23T06:57:10.456Z,85.15
2018-11-23T06:59:52.053Z,84.70
2018-11-23T07:02:32.835Z,84.73
2018-11-23T07:05:14.420Z,84.77
2018-11-23T07:07:55.644Z,85.25
2018-11-23T07:10:37.480Z,84.54
2018-11-23T07:13:19.054Z,84.54
2018-11-23T07:16:00.110Z,84.15
2018-11-23T07:18:41.296Z,84.41
2018-11-23T07:21:22.073Z,84.24
2018-11-23T07:24:03.921Z,84.00
2018-11-23T07:26:45.411Z,84.48
2018-11-23T07:29:26.808Z,85.21
2018-11-23T07:32:08.604Z,85.81
2018-11-23T07:34:49.886Z,84.67
2018-11-23T07:37:31.168Z,84.73
2018-11-23T07:40:12.704Z,86.22
2018-11-23T07:42:53.996Z,85.57
2018-11-23T07:45:35.437Z,84.47
2018-11-23T07:48:04.515Z,84.37
2018-11-23T07:50:52.847Z,84.46
2018-11-23T07:53:41.181Z,84.10
2018-11-23T07:56:29.475Z,83.89
2018-11-23T07:59:17.854Z,84.09
2018-11-23T08:02:06.749Z,84.27
2018-11-23T08:04:35.937Z,82.58
2018-11-23T08:07:24.241Z,81.66
2018-11-23T08:10:31.100Z,81.15
2018-11-23T08:13:19.417Z,81.26
2018-11-23T08:16:07.856Z,80.95
2018-11-23T08:21:25.968Z,79.86
2018-11-23T08:24:14.372Z,79.90
2018-11-23T08:26:43.409Z,80.02
2018-11-23T08:29:31.743Z,80.58
2018-11-23T08:32:20.165Z,81.22
2018-11-23T08:35:08.482Z,81.04
2018-11-23T08:37:56.860Z,80.83
2018-11-23T08:40:27.040Z,80.30
2018-11-23T08:43:15.458Z,80.62
2018-11-23T08:45:44.388Z,81.54
2018-11-23T08:48:13.401Z,82.12
2018-11-23T08:51:01.735Z,81.94
2018-11-23T08:53:50.088Z,81.29
2018-11-23T08:56:38.424Z,81.29
2018-11-23T08:59:26.762Z,81.18
2018-11-23T09:01:55.770Z,82.21
2018-11-23T09:04:25.043Z,82.30
2018-11-23T09:07:13.880Z,81.85
2018-11-23T09:10:02.258Z,81.64
2018-11-23T09:12:51.435Z,81.22
2018-11-23T09:15:39.824Z,80.56
2018-11-23T09:18:28.177Z,79.52
2018-11-23T09:21:16.489Z,78.77
2018-11-23T09:24:04.920Z,79.19
2018-11-23T09:26:53.577Z,79.40
2018-11-23T09:29:41.889Z,77.85
2018-11-23T09:35:19.475Z,78.59
2018-11-23T09:37:48.828Z,79.55
2018-11-23T09:40:37.145Z,80.02
2018-11-23T09:43:06.324Z,79.07
2018-11-23T09:45:35.597Z,78.43
2018-11-23T09:48:23.895Z,79.17
2018-11-23T09:51:12.297Z,76.15
2018-11-23T09:54:00.597Z,76.75
2018-11-23T09:56:49.084Z,77.84
2018-11-23T09:59:18.009Z,77.32
2018-11-23T10:02:06.376Z,78.06
2018-11-23T10:04:54.713Z,79.25
2018-11-23T10:07:44.234Z,77.15
2018-11-23T10:10:32.589Z,75.85
2018-11-23T10:13:20.916Z,77.05
2018-11-23T10:16:09.556Z,77.98
2018-11-23T10:18:57.876Z,77.63
2018-11-23T10:21:46.228Z,76.90
2018-11-23T10:24:36.208Z,77.20
2018-11-23T10:27:22.948Z,77.09
2018-11-23T10:30:12.547Z,76.81
2018-11-23T10:33:02.251Z,76.00
2018-11-23T10:35:31.739Z,76.04
2018-11-23T10:38:20.063Z,74.29
2018-11-23T10:40:48.980Z,76.51
2018-11-23T10:43:37.331Z,76.61
2018-11-23T10:46:25.676Z,76.74
2018-11-23T10:49:14.061Z,77.38
2018-11-23T10:52:02.324Z,78.31
2018-11-23T10:54:50.632Z,76.20
2018-11-23T10:57:19.604Z,75.66
2018-11-23T11:00:30.765Z,75.94
2018-11-23T11:03:38.234Z,76.26
2018-11-23T11:09:51.315Z,74.88
2018-11-23T11:12:39.638Z,75.74
2018-11-23T11:15:28.076Z,75.55
2018-11-23T11:17:56.967Z,75.02
2018-11-23T11:20:45.293Z,76.15
2018-11-23T11:23:51.498Z,75.75
2018-11-23T11:26:39.875Z,75.60
2018-11-23T11:29:28.212Z,77.59
2018-11-23T11:32:16.554Z,76.65
2018-11-23T11:35:05.553Z,76.80
2018-11-23T11:37:34.518Z,74.98
2018-11-23T11:40:22.866Z,73.75
2018-11-23T11:42:51.843Z,74.09
2018-11-23T11:45:40.458Z,73.96
2018-11-23T11:48:28.790Z,73.62
2018-11-23T11:50:57.783Z,72.02
2018-11-23T11:53:46.110Z,72.54
2018-11-23T11:56:34.465Z,72.07
2018-11-23T11:59:22.761Z,71.93
2018-11-23T12:02:11.153Z,71.74
2018-11-23T12:04:59.502Z,71.57
2018-11-23T12:07:47.921Z,71.21
2018-11-23T12:10:36.235Z,72.78
2018-11-23T12:13:24.575Z,71.66
2018-11-23T12:16:12.923Z,71.85
2018-11-23T12:19:01.336Z,71.96
2018-11-23T12:21:49.651Z,71.67
2018-11-23T12:24:37.982Z,72.00
2018-11-23T12:27:29.352Z,71.11
2018-11-23T12:30:16.055Z,71.18
2018-11-23T12:33:04.429Z,70.46
2018-11-23T12:35:52.793Z,70.02
2018-11-23T12:38:43.161Z,69.45
2018-11-23T12:41:29.474Z,69.06
2018-11-23T12:44:11.008Z,69.77
2018-11-23T12:46:52.394Z,68.28
2018-11-23T12:49:34.056Z,69.06
2018-11-23T12:52:15.894Z,69.10
2018-11-23T12:54:56.922Z,68.81
2018-11-23T12:57:37.898Z,69.15
2018-11-23T13:00:28.920Z,69.11
2018-11-23T13:03:10.385Z,68.56
2018-11-23T13:05:52.089Z,68.90
2018-11-23T13:11:37.335Z,68.91
2018-11-23T13:14:25.695Z,68.98
2018-11-23T13:17:14.055Z,69.19
2018-11-23T13:19:43.111Z,68.88
2018-11-23T13:22:31.510Z,69.13
2018-11-23T13:25:38.984Z,68.86
2018-11-23T13:28:07.861Z,69.48
2018-11-23T13:30:56.175Z,68.81
2018-11-23T13:33:44.548Z,68.43
2018-11-23T13:36:32.898Z,68.94
2018-11-23T13:39:21.226Z,69.15
2018-11-23T13:42:09.590Z,68.68
2018-11-23T13:44:57.947Z,68.85
2018-11-23T13:47:46.308Z,68.40
2018-11-23T13:50:34.625Z,68.46
2018-11-23T13:53:22.937Z,69.17
2018-11-23T13:56:11.247Z,68.26
2018-11-23T13:58:59.619Z,68.68
2018-11-23T14:01:47.967Z,68.52
2018-11-23T14:04:36.313Z,69.27
2018-11-23T14:07:05.434Z,68.85
2018-11-23T14:09:53.794Z,69.53
2018-11-23T14:12:42.586Z,69.60
2018-11-23T14:15:31.499Z,69.51
2018-11-23T14:18:19.821Z,69.00
2018-11-23T14:21:08.154Z,69.49
2018-11-23T14:23:56.540Z,70.13
2018-11-23T14:26:44.881Z,70.35
2018-11-23T14:29:33.251Z,70.16
2018-11-23T14:32:02.165Z,70.29
2018-11-23T14:34:50.532Z,69.98
2018-11-23T14:37:39.363Z,70.91
2018-11-23T14:40:09.178Z,70.50
2018-11-23T14:42:57.861Z,70.53
2018-11-23T14:45:46.216Z,70.37
2018-11-23T14:48:34.542Z,71.05
2018-11-23T14:51:23.250Z,72.16
2018-11-23T14:54:11.580Z,71.74
2018-11-23T14:56:59.879Z,73.10
2018-11-23T14:59:48.228Z,73.34
2018-11-23T15:02:17.201Z,73.14
2018-11-23T15:05:05.924Z,74.10
2018-11-23T15:07:54.235Z,74.32
2018-11-23T15:10:42.545Z,74.67
2018-11-23T15:13:30.890Z,74.02
2018-11-23T15:16:19.233Z,74.26
2018-11-23T15:19:07.717Z,74.80
2018-11-23T15:21:56.052Z,75.17
2018-11-23T15:24:25.051Z,74.24
2018-11-23T15:26:54.306Z,75.67
2018-11-23T15:32:56.269Z,74.93
2018-11-23T15:35:44.739Z,75.87
2018-11-23T15:38:15.358Z,76.93
2018-11-23T15:40:44.339Z,75.95
2018-11-23T15:43:14.451Z,77.37
2018-11-23T15:46:02.847Z,78.36
2018-11-23T15:48:51.167Z,77.82
2018-11-23T15:51:20.134Z,76.89
2018-11-23T15:54:08.521Z,76.78
2018-11-23T15:56:45.359Z,77.49
2018-11-23T15:59:34.302Z,78.21
2018-11-23T16:02:03.639Z,77.68
2018-11-23T16:04:51.977Z,78.55
2018-11-23T16:07:21.305Z,77.74
2018-11-23T16:09:50.260Z,78.89
2018-11-23T16:12:38.704Z,79.23
2018-11-23T16:15:08.529Z,78.50
2018-11-23T16:17:57.413Z,78.33
2018-11-23T16:20:46.566Z,77.63
2018-11-23T16:23:34.992Z,78.99
2018-11-23T16:26:23.255Z,78.42
2018-11-23T16:29:11.627Z,78.39
2018-11-23T16:32:00.067Z,78.04
2018-11-23T16:38:03.646Z,77.73
2018-11-23T16:41:11.061Z,78.42
2018-11-23T16:43:40.026Z,79.10
2018-11-23T16:46:09.067Z,78.62
2018-11-23T16:52:11.116Z,78.55
2018-11-23T16:54:40.036Z,78.72
2018-11-23T16:57:28.382Z,79.53
2018-11-23T17:00:36.222Z,79.29
2018-11-23T17:03:07.447Z,78.78
2018-11-23T17:05:55.504Z,79.01
2018-11-23T17:08:43.830Z,78.93
2018-11-23T17:11:12.877Z,78.69
2018-11-23T17:13:41.731Z,80.28
2018-11-23T17:16:30.117Z,79.57
2018-11-23T17:19:18.408Z,79.35
2018-11-23T17:22:07.058Z,78.70
2018-11-23T17:24:55.556Z,80.07
2018-11-23T17:27:44.201Z,79.83
2018-11-23T17:30:33.409Z,79.79
2018-11-23T17:33:21.695Z,79.82
2018-11-23T17:36:10.201Z,79.28
2018-11-23T17:38:58.568Z,79.89
2018-11-23T17:41:27.515Z,80.43
2018-11-23T17:44:15.929Z,81.12
2018-11-23T17:47:04.202Z,81.23
2018-11-23T17:49:33.331Z,81.23
2018-11-23T17:52:02.419Z,80.01
2018-11-23T17:54:50.957Z,80.12
2018-11-23T17:57:39.720Z,81.25
2018-11-23T18:00:38.959Z,81.13
2018-11-23T18:03:20.496Z,81.48
2018-11-23T18:06:08.783Z,81.18
2018-11-23T18:08:57.140Z,80.46
2018-11-23T18:11:26.114Z,80.59
2018-11-23T18:14:14.473Z,80.88
2018-11-23T18:17:02.844Z,80.31
2018-11-23T18:19:51.511Z,81.67
2018-11-23T18:22:40.177Z,81.45
2018-11-23T18:25:47.596Z,81.54
2018-11-23T18:28:35.894Z,80.82
2018-11-23T18:31:05.140Z,81.56
2018-11-23T18:33:34.019Z,81.91
2018-11-23T18:36:22.451Z,81.71
2018-11-23T18:39:10.788Z,81.53
2018-11-23T18:41:59.102Z,81.43
2018-11-23T18:44:28.076Z,81.59
2018-11-23T18:47:16.434Z,82.06
2018-11-23T18:50:05.259Z,82.38
2018-11-23T18:52:53.604Z,82.05
2018-11-23T18:55:41.898Z,81.36
2018-11-23T18:58:30.386Z,81.83
2018-11-23T19:00:59.353Z,81.46
2018-11-23T19:03:28.436Z,81.95
2018-11-23T19:06:16.827Z,82.39
2018-11-23T19:09:07.604Z,82.21
2018-11-23T19:11:55.956Z,81.99
2018-11-23T19:14:44.286Z,82.34
2018-11-23T19:17:32.632Z,82.25
2018-11-23T19:20:01.524Z,83.12
2018-11-23T19:22:50.324Z,83.17
2018-11-23T19:25:38.734Z,83.25
2018-11-23T19:28:27.262Z,82.17
2018-11-23T19:31:15.558Z,82.20
2018-11-23T19:34:03.878Z,83.07
2018-11-23T19:36:52.281Z,82.94
2018-11-23T19:39:40.697Z,83.08
2018-11-23T19:42:28.922Z,83.52
2018-11-23T19:45:17.340Z,84.42
2018-11-23T19:48:05.880Z,84.79
2018-11-23T19:50:54.223Z,83.90
2018-11-23T19:53:23.241Z,83.96
2018-11-23T19:55:52.588Z,83.18
2018-11-23T19:58:21.641Z,83.95
2018-11-23T20:01:10.005Z,83.80
2018-11-23T20:03:58.424Z,82.96
2018-11-23T20:06:47.365Z,83.28
2018-11-23T20:09:39.826Z,83.63
2018-11-23T20:12:24.000Z,84.45
2018-11-23T20:15:13.027Z,83.73
2018-11-23T20:18:01.517Z,83.24
2018-11-23T20:20:49.896Z,83.97
2018-11-23T20:23:38.296Z,85.02
2018-11-23T20:26:26.831Z,84.84
2018-11-23T20:29:15.209Z,85.95
2018-11-23T20:32:03.579Z,86.50
2018-11-23T20:34:51.894Z,84.86
2018-11-23T20:37:40.262Z,85.57
2018-11-23T20:40:28.633Z,85.12
2018-11-23T20:43:17.161Z,85.70
2018-11-23T20:46:05.403Z,86.82
2018-11-23T20:48:34.398Z,86.66
2018-11-23T20:51:03.354Z,83.58
2018-11-23T20:53:51.695Z,85.56
2018-11-23T20:56:39.994Z,84.57
2018-11-23T20:59:28.314Z,85.06
2018-11-23T21:02:16.651Z,85.29
2018-11-23T21:04:45.642Z,85.17
2018-11-23T21:07:33.963Z,84.02
2018-11-23T21:10:22.881Z,84.73
2018-11-23T21:13:11.205Z,85.58
2018-11-23T21:15:59.534Z,84.69
2018-11-23T21:18:28.537Z,87.15
2018-11-23T21:21:16.848Z,83.46
2018-11-23T21:24:05.464Z,84.91
2018-11-23T21:26:53.840Z,86.39
2018-11-23T21:29:42.187Z,85.00
2018-11-23T21:32:11.331Z,85.41
2018-11-23T21:34:59.674Z,85.20
2018-11-23T21:37:48.009Z,84.85
2018-11-23T21:40:36.397Z,84.69
2018-11-23T21:47:21.761Z,84.34
2018-11-23T21:50:03.435Z,84.56
2018-11-23T21:52:44.637Z,85.68
2018-11-23T21:55:26.250Z,85.44
2018-11-23T21:57:56.398Z,85.72
2018-11-23T22:00:45.135Z,84.73
2018-11-23T22:03:14.917Z,84.78
2018-11-23T22:06:03.564Z,85.92
2018-11-23T22:11:40.764Z,85.23
2018-11-23T22:14:29.729Z,85.39
2018-11-23T22:16:58.661Z,85.07
2018-11-23T22:19:47.328Z,84.58
2018-11-23T22:22:35.476Z,85.22
2018-11-23T22:25:23.809Z,84.53
2018-11-23T22:28:12.173Z,84.91
2018-11-23T22:30:41.111Z,84.59
2018-11-23T22:33:29.507Z,85.61
2018-11-23T22:36:17.778Z,86.08
2018-11-23T22:39:08.173Z,86.00
2018-11-23T22:41:56.473Z,86.01
2018-11-23T22:47:52.197Z,85.70
2018-11-23T22:50:40.649Z,85.59
2018-11-23T22:53:48.359Z,85.18
2018-11-23T22:56:17.435Z,85.30
2018-11-23T22:59:05.895Z,85.26
2018-11-23T23:01:35.134Z,85.32
2018-11-23T23:04:23.480Z,85.31
2018-11-23T23:07:12.089Z,86.05
2018-11-23T23:10:00.507Z,85.41
2018-11-23T23:12:49.275Z,85.41
2018-11-23T23:15:37.789Z,85.28
2018-11-23T23:18:06.838Z,85.13
2018-11-23T23:20:36.873Z,85.21
2018-11-23T23:23:25.377Z,85.16
2018-11-23T23:26:13.709Z,85.30
2018-11-23T23:29:02.336Z,86.04
2018-11-23T23:31:50.629Z,85.98
2018-11-23T23:34:39.335Z,84.89
2018-11-23T23:37:08.666Z,85.58
2018-11-23T23:39:57.020Z,85.76
2018-11-23T23:42:45.489Z,86.47
2018-11-23T23:45:34.199Z,86.13
2018-11-23T23:48:03.338Z,85.55
2018-11-23T23:50:51.888Z,85.74
2018-11-23T23:53:40.200Z,85.95
2018-11-23T23:56:28.564Z,85.77
2018-11-23T23:59:16.868Z,85.52
